createdAt,value
2023-04-07T00:00:32.937Z,7.45
2023-04-07T00:03:02.635Z,7.47
2023-04-07T00:05:31.762Z,7.47
2023-04-07T00:07:59.980Z,7.49
2023-04-07T00:10:28.809Z,7.49
2023-04-07T00:12:57.124Z,7.44
2023-04-07T00:15:25.141Z,7.38
2023-04-07T00:17:56.490Z,7.34
2023-04-07T00:20:25.444Z,7.29
2023-04-07T00:22:54.131Z,7.25
2023-04-07T00:25:23.304Z,7.20
2023-04-07T00:27:51.806Z,7.15
2023-04-07T00:30:21.125Z,7.12
2023-04-07T00:32:51.560Z,7.12
2023-04-07T00:35:20.039Z,7.13
2023-04-07T00:37:49.141Z,7.17
2023-04-07T00:40:17.745Z,7.20
2023-04-07T00:42:46.521Z,7.22
2023-04-07T00:45:14.805Z,7.25
2023-04-07T00:47:43.621Z,7.22
2023-04-07T00:50:12.085Z,7.19
2023-04-07T00:52:40.391Z,7.17
2023-04-07T00:55:09.743Z,7.15
2023-04-07T00:57:39.035Z,7.11
2023-04-07T01:00:09.953Z,7.09
2023-04-07T01:02:45.233Z,7.10
2023-04-07T01:05:17.565Z,7.10
2023-04-07T01:08:04.881Z,7.10
2023-04-07T01:10:39.684Z,7.10
2023-04-07T01:13:52.979Z,7.10
2023-04-07T01:16:52.471Z,7.04
2023-04-07T01:19:35.057Z,6.96
2023-04-07T01:22:14.088Z,6.89
2023-04-07T01:25:07.480Z,6.82
2023-04-07T01:27:43.245Z,6.73
2023-04-07T01:30:13.006Z,6.68
2023-04-07T01:32:44.965Z,6.66
2023-04-07T01:35:13.576Z,6.69
2023-04-07T01:37:41.964Z,6.70
2023-04-07T01:40:11.304Z,6.68
2023-04-07T01:42:39.807Z,6.62
2023-04-07T01:45:08.466Z,6.57
2023-04-07T01:47:37.860Z,6.56
2023-04-07T01:50:09.159Z,6.63
2023-04-07T01:52:37.470Z,6.69
2023-04-07T01:55:06.494Z,6.71
2023-04-07T01:57:38.968Z,6.70
2023-04-07T02:00:14.426Z,6.70
2023-04-07T02:02:49.834Z,6.68
2023-04-07T02:05:19.953Z,6.66
2023-04-07T02:07:59.916Z,6.67
2023-04-07T02:10:37.288Z,6.64
2023-04-07T02:13:09.136Z,6.58
2023-04-07T02:15:37.268Z,6.55
2023-04-07T02:18:05.820Z,6.55
2023-04-07T02:20:34.547Z,6.51
2023-04-07T02:23:02.642Z,6.49
2023-04-07T02:25:32.129Z,6.49
2023-04-07T02:28:00.868Z,6.49
2023-04-07T02:30:28.946Z,6.50
2023-04-07T02:32:57.999Z,6.51
2023-04-07T02:35:26.422Z,6.49
2023-04-07T02:37:54.869Z,6.44
2023-04-07T02:40:23.170Z,6.42
2023-04-07T02:42:57.412Z,6.44
2023-04-07T02:45:25.399Z,6.44
2023-04-07T02:47:54.387Z,6.49
2023-04-07T02:50:22.502Z,6.51
2023-04-07T02:52:50.912Z,6.55
2023-04-07T02:55:19.088Z,6.59
2023-04-07T02:57:47.814Z,6.61
2023-04-07T03:00:31.402Z,6.62
2023-04-07T03:03:08.786Z,6.60
2023-04-07T03:05:39.427Z,6.60
2023-04-07T03:08:07.872Z,6.58
2023-04-07T03:10:37.915Z,6.53
2023-04-07T03:13:08.580Z,6.50
2023-04-07T03:15:37.261Z,6.51
2023-04-07T03:18:06.915Z,6.50
2023-04-07T03:20:36.028Z,6.48
2023-04-07T03:23:08.950Z,6.47
2023-04-07T03:25:39.989Z,6.44
2023-04-07T03:28:08.082Z,6.40
2023-04-07T03:30:41.138Z,6.32
2023-04-07T03:33:10.124Z,6.24
2023-04-07T03:35:38.310Z,6.21
2023-04-07T03:38:08.184Z,6.16
2023-04-07T03:40:37.695Z,6.11
2023-04-07T03:43:06.076Z,6.11
2023-04-07T03:45:34.868Z,6.13
2023-04-07T03:48:06.052Z,6.12
2023-04-07T03:50:34.185Z,6.12
2023-04-07T03:53:16.788Z,6.13
2023-04-07T03:55:45.017Z,6.10
2023-04-07T03:58:19.942Z,6.05
2023-04-07T04:00:48.839Z,6.01
2023-04-07T04:03:18.350Z,5.98
2023-04-07T04:05:56.452Z,5.98
2023-04-07T04:08:31.266Z,6.00
2023-04-07T04:10:59.603Z,6.04
2023-04-07T04:13:36.491Z,6.05
2023-04-07T04:16:06.790Z,6.04
2023-04-07T04:18:35.784Z,6.07
2023-04-07T04:21:07.088Z,6.10
2023-04-07T04:23:36.286Z,6.10
2023-04-07T04:26:04.857Z,6.13
2023-04-07T04:28:38.518Z,6.14
2023-04-07T04:31:09.047Z,6.08
2023-04-07T04:33:41.414Z,6.02
2023-04-07T04:36:10.642Z,5.93
2023-04-07T04:38:39.038Z,5.88
2023-04-07T04:41:21.408Z,5.87
2023-04-07T04:43:52.283Z,5.86
2023-04-07T04:46:24.502Z,5.86
2023-04-07T04:48:54.397Z,5.88
2023-04-07T04:51:24.132Z,5.89
2023-04-07T04:53:56.699Z,5.88
2023-04-07T04:56:26.073Z,5.92
2023-04-07T04:58:55.086Z,6.02
2023-04-07T05:01:33.365Z,6.05
2023-04-07T05:04:10.568Z,6.09
2023-04-07T05:06:41.338Z,6.18
2023-04-07T05:09:14.274Z,6.28
2023-04-07T05:11:48.150Z,6.32
2023-04-07T05:14:16.568Z,6.28
2023-04-07T05:16:49.773Z,6.24
2023-04-07T05:19:24.306Z,6.19
2023-04-07T05:21:54.214Z,6.18
2023-04-07T05:24:27.544Z,6.19
2023-04-07T05:26:58.573Z,6.20
2023-04-07T05:29:27.564Z,6.23
2023-04-07T05:31:57.094Z,6.24
2023-04-07T05:34:26.025Z,6.23
2023-04-07T05:36:56.116Z,6.22
2023-04-07T05:39:24.560Z,6.22
2023-04-07T05:41:55.283Z,6.25
2023-04-07T05:44:27.686Z,6.27
2023-04-07T05:46:56.476Z,6.34
2023-04-07T05:49:27.974Z,6.51
2023-04-07T05:52:07.571Z,6.75
2023-04-07T05:54:41.013Z,6.90
2023-04-07T05:57:11.543Z,7.17
2023-04-07T05:59:42.480Z,7.66
2023-04-07T06:02:11.205Z,8.17
2023-04-07T06:04:40.554Z,8.64
2023-04-07T06:07:10.422Z,9.18
2023-04-07T06:09:38.612Z,9.68
2023-04-07T06:12:07.072Z,10.20
2023-04-07T06:14:35.585Z,10.49
2023-04-07T06:17:09.896Z,11.02
2023-04-07T06:19:39.803Z,12.07
2023-04-07T06:22:08.617Z,13.27
2023-04-07T06:24:36.889Z,14.53
2023-04-07T06:27:05.098Z,15.85
2023-04-07T06:29:34.292Z,16.97
2023-04-07T06:32:04.567Z,17.68
2023-04-07T06:34:43.572Z,18.40
2023-04-07T06:37:11.749Z,19.22
2023-04-07T06:39:41.998Z,20.08
2023-04-07T06:42:10.751Z,21.01
2023-04-07T06:44:42.927Z,21.25
2023-04-07T06:47:11.748Z,21.50
2023-04-07T06:49:42.970Z,22.24
2023-04-07T06:52:11.311Z,22.85
2023-04-07T06:54:39.513Z,23.33
2023-04-07T06:57:12.291Z,23.55
2023-04-07T06:59:40.616Z,24.15
2023-04-07T07:02:09.807Z,24.85
2023-04-07T07:04:38.941Z,25.57
2023-04-07T07:07:07.020Z,26.05
2023-04-07T07:09:35.908Z,26.25
2023-04-07T07:12:04.461Z,26.30
2023-04-07T07:14:33.252Z,26.22
2023-04-07T07:17:01.499Z,25.88
2023-04-07T07:19:29.812Z,25.46
2023-04-07T07:21:57.964Z,25.15
2023-04-07T07:24:26.241Z,24.96
2023-04-07T07:26:55.328Z,24.83
2023-04-07T07:29:23.478Z,24.75
2023-04-07T07:31:53.374Z,24.69
2023-04-07T07:34:22.612Z,24.42
2023-04-07T07:36:56.593Z,24.26
2023-04-07T07:39:24.766Z,24.16
2023-04-07T07:41:53.121Z,23.40
2023-04-07T07:44:22.931Z,22.00
2023-04-07T07:46:51.472Z,20.34
2023-04-07T07:49:21.631Z,19.05
2023-04-07T07:51:50.043Z,17.97
2023-04-07T07:54:19.191Z,17.13
2023-04-07T07:56:47.337Z,16.39
2023-04-07T07:59:17.774Z,15.71
2023-04-07T08:01:49.742Z,15.20
2023-04-07T08:04:18.583Z,14.69
2023-04-07T08:06:47.442Z,14.24
2023-04-07T08:09:16.301Z,13.81
2023-04-07T08:11:44.567Z,13.49
2023-04-07T08:14:12.994Z,13.26
2023-04-07T08:16:41.441Z,13.12
2023-04-07T08:19:09.859Z,13.03
2023-04-07T08:21:39.156Z,12.96
2023-04-07T08:24:07.418Z,12.89
2023-04-07T08:26:35.602Z,12.80
2023-04-07T08:29:03.697Z,12.76
2023-04-07T08:31:32.821Z,12.73
2023-04-07T08:34:01.018Z,12.71
2023-04-07T08:36:30.292Z,12.67
2023-04-07T08:39:00.350Z,12.66
2023-04-07T08:41:39.509Z,12.66
2023-04-07T08:44:08.029Z,12.65
2023-04-07T08:46:36.212Z,12.66
2023-04-07T08:49:04.489Z,12.66
2023-04-07T08:51:34.442Z,12.56
2023-04-07T08:54:11.040Z,12.58
2023-04-07T08:56:43.730Z,12.65
2023-04-07T08:59:13.247Z,12.69
2023-04-07T09:01:42.648Z,12.76
2023-04-07T09:04:11.960Z,12.82
2023-04-07T09:06:40.490Z,12.86
2023-04-07T09:09:08.648Z,12.88
2023-04-07T09:11:38.232Z,12.87
2023-04-07T09:14:06.376Z,12.89
2023-04-07T09:16:34.498Z,12.90
2023-04-07T09:19:02.639Z,12.86
2023-04-07T09:21:49.999Z,12.72
2023-04-07T09:24:25.200Z,12.64
2023-04-07T09:27:08.716Z,12.51
2023-04-07T09:29:37.881Z,12.39
2023-04-07T09:32:06.827Z,12.26
2023-04-07T09:34:38.475Z,12.21
2023-04-07T09:37:09.768Z,12.10
2023-04-07T09:39:52.421Z,12.06
2023-04-07T09:42:20.969Z,12.16
2023-04-07T09:44:49.158Z,12.28
2023-04-07T09:47:18.147Z,12.34
2023-04-07T09:49:51.324Z,12.42
2023-04-07T09:52:20.824Z,12.49
2023-04-07T09:54:49.341Z,12.44
2023-04-07T09:57:18.722Z,12.37
2023-04-07T09:59:50.275Z,12.37
2023-04-07T10:02:18.766Z,12.38
2023-04-07T10:04:47.392Z,12.31
2023-04-07T10:07:15.574Z,12.18
2023-04-07T10:09:47.657Z,12.10
2023-04-07T10:12:16.001Z,12.12
2023-04-07T10:14:47.220Z,12.10
2023-04-07T10:17:18.798Z,12.08
2023-04-07T10:19:47.304Z,12.07
2023-04-07T10:22:15.536Z,12.10
2023-04-07T10:24:57.525Z,12.17
2023-04-07T10:27:31.073Z,12.16
2023-04-07T10:29:59.828Z,12.14
2023-04-07T10:32:27.849Z,12.12
2023-04-07T10:34:59.180Z,12.13
2023-04-07T10:37:28.028Z,12.20
2023-04-07T10:40:21.848Z,12.22
2023-04-07T10:42:49.910Z,12.25
2023-04-07T10:45:18.011Z,12.32
2023-04-07T10:48:09.754Z,12.37
2023-04-07T10:50:38.762Z,12.39
2023-04-07T10:53:08.540Z,12.36
2023-04-07T10:55:46.345Z,12.25
2023-04-07T10:58:29.115Z,12.16
2023-04-07T11:01:04.837Z,12.13
2023-04-07T11:03:35.073Z,12.21
2023-04-07T11:06:10.232Z,12.29
2023-04-07T11:08:38.838Z,12.32
2023-04-07T11:11:14.188Z,12.27
2023-04-07T11:13:48.893Z,12.28
2023-04-07T11:16:20.930Z,12.32
2023-04-07T11:18:50.996Z,12.28
2023-04-07T11:21:19.417Z,12.21
2023-04-07T11:23:48.355Z,12.20
2023-04-07T11:26:18.172Z,12.25
2023-04-07T11:28:49.514Z,12.32
2023-04-07T11:31:27.719Z,12.34
2023-04-07T11:34:02.157Z,12.34
2023-04-07T11:36:40.697Z,12.35
2023-04-07T11:39:19.636Z,12.36
2023-04-07T11:41:48.558Z,12.34
2023-04-07T11:44:16.717Z,12.38
2023-04-07T11:46:55.320Z,12.41
2023-04-07T11:49:28.395Z,12.44
2023-04-07T11:52:09.443Z,12.44
2023-04-07T11:54:42.511Z,12.42
2023-04-07T11:57:13.112Z,12.43
2023-04-07T11:59:43.803Z,12.46
2023-04-07T12:02:11.992Z,12.49
2023-04-07T12:04:56.269Z,12.56
2023-04-07T12:07:26.256Z,12.64
2023-04-07T12:09:55.990Z,12.70
2023-04-07T12:12:28.574Z,12.73
2023-04-07T12:15:02.712Z,12.73
2023-04-07T12:17:31.888Z,12.74
2023-04-07T12:20:08.293Z,12.76
2023-04-07T12:22:36.648Z,12.79
2023-04-07T12:25:05.036Z,12.78
2023-04-07T12:27:42.647Z,12.74
2023-04-07T12:30:13.342Z,12.72
2023-04-07T12:32:42.044Z,12.77
2023-04-07T12:35:10.724Z,12.85
2023-04-07T12:37:39.296Z,12.97
2023-04-07T12:40:08.153Z,13.04
2023-04-07T12:42:37.149Z,13.14
2023-04-07T12:45:05.856Z,13.26
2023-04-07T12:47:35.365Z,13.39
2023-04-07T12:50:04.080Z,13.47
2023-04-07T12:52:37.501Z,13.53
2023-04-07T12:55:06.094Z,13.54
2023-04-07T12:57:34.214Z,13.55
2023-04-07T13:00:02.626Z,13.57
2023-04-07T13:02:36.898Z,13.62
2023-04-07T13:05:06.076Z,13.71
2023-04-07T13:07:36.417Z,13.77
2023-04-07T13:10:07.288Z,13.82
2023-04-07T13:12:35.940Z,13.85
2023-04-07T13:15:09.208Z,13.95
2023-04-07T13:17:38.716Z,14.01
2023-04-07T13:20:07.904Z,14.10
2023-04-07T13:22:36.301Z,14.17
2023-04-07T13:25:04.907Z,14.25
2023-04-07T13:27:34.112Z,14.28
2023-04-07T13:30:02.461Z,14.16
2023-04-07T13:32:33.472Z,14.03
2023-04-07T13:35:01.850Z,13.97
2023-04-07T13:37:30.077Z,13.90
2023-04-07T13:39:58.342Z,13.84
2023-04-07T13:42:26.801Z,13.83
2023-04-07T13:44:58.170Z,13.80
2023-04-07T13:47:27.043Z,13.73
2023-04-07T13:49:55.861Z,13.69
2023-04-07T13:52:24.281Z,13.71
2023-04-07T13:54:52.377Z,13.71
2023-04-07T13:57:23.416Z,13.64
2023-04-07T13:59:54.249Z,13.59
2023-04-07T14:02:24.310Z,13.55
2023-04-07T14:04:52.669Z,13.54
2023-04-07T14:07:23.193Z,13.54
2023-04-07T14:09:51.674Z,13.56
2023-04-07T14:12:23.711Z,13.56
2023-04-07T14:14:55.607Z,13.55
2023-04-07T14:17:24.807Z,13.58
2023-04-07T14:19:52.903Z,13.59
2023-04-07T14:22:26.986Z,13.62
2023-04-07T14:25:00.983Z,13.63
2023-04-07T14:28:03.129Z,13.60
2023-04-07T14:30:31.743Z,13.55
2023-04-07T14:33:01.465Z,13.50
2023-04-07T14:35:31.881Z,13.45
2023-04-07T14:38:00.570Z,13.40
2023-04-07T14:40:33.620Z,13.41
2023-04-07T14:43:07.312Z,13.46
2023-04-07T14:45:35.882Z,13.50
2023-04-07T14:48:05.970Z,13.49
2023-04-07T14:50:34.406Z,13.44
2023-04-07T14:53:03.614Z,13.40
2023-04-07T14:55:32.192Z,13.39
2023-04-07T14:58:00.296Z,13.41
2023-04-07T15:00:28.994Z,13.44
2023-04-07T15:03:16.391Z,13.48
2023-04-07T15:05:44.718Z,13.48
2023-04-07T15:08:14.272Z,13.51
2023-04-07T15:10:42.793Z,13.53
2023-04-07T15:13:11.192Z,13.54
2023-04-07T15:15:39.264Z,13.52
2023-04-07T15:18:07.558Z,13.51
2023-04-07T15:20:35.722Z,13.47
2023-04-07T15:23:03.739Z,13.43
2023-04-07T15:25:32.350Z,13.41
2023-04-07T15:28:00.697Z,13.42
2023-04-07T15:30:29.139Z,13.43
2023-04-07T15:33:01.151Z,13.43
2023-04-07T15:35:30.189Z,13.43
2023-04-07T15:37:58.326Z,13.46
2023-04-07T15:40:26.332Z,13.53
2023-04-07T15:42:54.433Z,13.58
2023-04-07T15:45:22.724Z,13.59
2023-04-07T15:47:52.809Z,13.57
2023-04-07T15:50:20.886Z,13.50
2023-04-07T15:52:49.368Z,13.43
2023-04-07T15:55:17.429Z,13.40
2023-04-07T15:57:46.870Z,13.37
2023-04-07T16:00:15.548Z,13.36
2023-04-07T16:02:45.376Z,13.34
2023-04-07T16:05:13.798Z,13.32
2023-04-07T16:07:41.862Z,13.29
2023-04-07T16:10:12.524Z,13.28
2023-04-07T16:12:42.431Z,13.25
2023-04-07T16:15:11.759Z,13.20
2023-04-07T16:17:42.764Z,13.15
2023-04-07T16:20:14.936Z,13.12
2023-04-07T16:22:43.991Z,13.08
2023-04-07T16:25:12.399Z,13.06
2023-04-07T16:27:40.824Z,13.03
2023-04-07T16:30:14.319Z,13.01
2023-04-07T16:32:46.724Z,12.95
2023-04-07T16:35:15.203Z,12.88
2023-04-07T16:37:47.199Z,12.82
2023-04-07T16:40:16.232Z,12.78
2023-04-07T16:42:44.380Z,12.74
2023-04-07T16:45:13.550Z,12.69
2023-04-07T16:47:44.580Z,12.64
2023-04-07T16:50:12.867Z,12.63
2023-04-07T16:52:41.412Z,12.64
2023-04-07T16:55:09.732Z,12.60
2023-04-07T16:57:38.961Z,12.55
2023-04-07T17:00:08.024Z,12.53
2023-04-07T17:02:37.398Z,12.47
2023-04-07T17:05:06.261Z,12.42
2023-04-07T17:07:34.566Z,12.39
2023-04-07T17:10:07.513Z,12.34
2023-04-07T17:12:36.849Z,12.30
2023-04-07T17:15:11.207Z,12.27
2023-04-07T17:17:40.594Z,12.26
2023-04-07T17:20:09.600Z,12.26
2023-04-07T17:22:37.844Z,12.26
2023-04-07T17:25:07.503Z,12.24
2023-04-07T17:27:36.172Z,12.24
2023-04-07T17:30:08.499Z,12.20
2023-04-07T17:32:37.588Z,12.12
2023-04-07T17:35:06.091Z,12.04
2023-04-07T17:37:34.554Z,11.98
2023-04-07T17:40:03.000Z,11.92
2023-04-07T17:42:33.332Z,11.89
2023-04-07T17:45:03.310Z,11.90
2023-04-07T17:47:31.804Z,11.92
2023-04-07T17:50:00.376Z,11.90
2023-04-07T17:52:31.629Z,11.90
2023-04-07T17:55:00.726Z,11.90
2023-04-07T17:57:29.227Z,11.88
2023-04-07T17:59:57.253Z,11.84
2023-04-07T18:02:27.055Z,11.78
2023-04-07T18:04:57.796Z,11.73
2023-04-07T18:07:25.827Z,11.72
2023-04-07T18:09:54.070Z,11.72
2023-04-07T18:12:23.341Z,11.71
2023-04-07T18:14:51.861Z,11.71
2023-04-07T18:17:19.939Z,11.71
2023-04-07T18:19:48.581Z,11.72
2023-04-07T18:22:18.058Z,11.72
2023-04-07T18:24:46.775Z,11.72
2023-04-07T18:27:15.023Z,11.72
2023-04-07T18:29:46.904Z,11.69
2023-04-07T18:32:15.033Z,11.66
2023-04-07T18:34:47.319Z,11.63
2023-04-07T18:37:16.695Z,11.62
2023-04-07T18:39:44.993Z,11.62
2023-04-07T18:42:13.308Z,11.62
2023-04-07T18:44:41.540Z,11.64
2023-04-07T18:47:09.751Z,11.66
2023-04-07T18:49:39.835Z,11.69
2023-04-07T18:52:08.996Z,11.72
2023-04-07T18:54:37.229Z,11.74
2023-04-07T18:57:05.679Z,11.73
2023-04-07T18:59:34.298Z,11.74
2023-04-07T19:02:02.497Z,11.75
2023-04-07T19:04:31.436Z,11.78
2023-04-07T19:07:00.164Z,11.81
2023-04-07T19:09:29.728Z,11.83
2023-04-07T19:11:58.104Z,11.83
2023-04-07T19:14:26.644Z,11.84
2023-04-07T19:16:54.855Z,11.85
2023-04-07T19:19:23.364Z,11.88
2023-04-07T19:21:57.687Z,11.89
2023-04-07T19:24:26.730Z,11.90
2023-04-07T19:26:54.805Z,11.90
2023-04-07T19:29:23.471Z,11.92
2023-04-07T19:31:53.078Z,11.92
2023-04-07T19:34:21.182Z,11.94
2023-04-07T19:36:50.086Z,11.96
2023-04-07T19:39:19.285Z,11.98
2023-04-07T19:41:48.381Z,12.00
2023-04-07T19:44:18.293Z,12.02
2023-04-07T19:46:46.412Z,12.04
2023-04-07T19:49:14.608Z,12.05
2023-04-07T19:51:43.271Z,12.07
2023-04-07T19:54:12.212Z,12.08
2023-04-07T19:56:40.652Z,12.09
2023-04-07T19:59:09.677Z,12.09
2023-04-07T20:01:38.186Z,12.09
2023-04-07T20:04:06.604Z,12.10
2023-04-07T20:06:36.797Z,12.08
2023-04-07T20:09:04.995Z,12.07
2023-04-07T20:11:33.055Z,12.07
2023-04-07T20:14:04.494Z,12.07
2023-04-07T20:16:32.893Z,12.06
2023-04-07T20:19:01.097Z,12.02
2023-04-07T20:21:32.418Z,11.96
2023-04-07T20:24:00.761Z,11.89
2023-04-07T20:26:28.861Z,11.85
2023-04-07T20:28:56.906Z,11.85
2023-04-07T20:31:25.424Z,11.85
2023-04-07T20:33:53.578Z,11.87
2023-04-07T20:36:21.900Z,11.89
2023-04-07T20:38:50.560Z,11.92
2023-04-07T20:41:22.326Z,11.96
2023-04-07T20:43:51.941Z,11.98
2023-04-07T20:46:21.392Z,12.00
2023-04-07T20:48:49.856Z,12.00
2023-04-07T20:51:18.275Z,11.99
2023-04-07T20:53:48.510Z,11.98
2023-04-07T20:56:16.554Z,11.97
2023-04-07T20:58:48.259Z,11.97
2023-04-07T21:01:16.765Z,11.96
2023-04-07T21:03:45.245Z,11.96
2023-04-07T21:06:13.840Z,11.98
2023-04-07T21:08:42.092Z,11.99
2023-04-07T21:11:10.423Z,12.00
2023-04-07T21:13:38.475Z,12.01
2023-04-07T21:16:06.907Z,12.02
2023-04-07T21:18:35.998Z,12.03
2023-04-07T21:21:04.463Z,12.03
2023-04-07T21:23:32.764Z,12.04
2023-04-07T21:26:02.315Z,12.03
2023-04-07T21:28:34.634Z,12.03
2023-04-07T21:31:04.072Z,12.02
2023-04-07T21:33:32.600Z,12.02
2023-04-07T21:36:05.448Z,12.01
2023-04-07T21:38:33.822Z,12.00
2023-04-07T21:41:02.187Z,11.98
2023-04-07T21:43:30.628Z,11.97
2023-04-07T21:46:01.393Z,11.96
2023-04-07T21:48:30.361Z,11.95
2023-04-07T21:50:58.570Z,11.94
2023-04-07T21:53:27.429Z,11.94
2023-04-07T21:55:55.474Z,11.92
2023-04-07T21:58:25.389Z,11.88
2023-04-07T22:00:54.608Z,11.87
2023-04-07T22:03:23.846Z,11.85
2023-04-07T22:06:00.059Z,11.84
2023-04-07T22:08:28.850Z,11.81
2023-04-07T22:10:58.762Z,11.80
2023-04-07T22:13:27.393Z,11.79
2023-04-07T22:15:55.885Z,11.78
2023-04-07T22:18:23.935Z,11.78
2023-04-07T22:20:54.843Z,11.79
2023-04-07T22:23:23.044Z,11.80
2023-04-07T22:25:52.842Z,11.80
2023-04-07T22:28:22.268Z,11.79
2023-04-07T22:30:50.375Z,11.79
2023-04-07T22:33:19.838Z,11.79
2023-04-07T22:35:48.567Z,11.80
2023-04-07T22:38:19.768Z,11.81
2023-04-07T22:40:47.899Z,11.81
2023-04-07T22:43:16.236Z,11.81
2023-04-07T22:45:44.483Z,11.80
2023-04-07T22:48:12.746Z,11.79
2023-04-07T22:50:43.695Z,11.78
2023-04-07T22:53:11.781Z,11.75
2023-04-07T22:55:40.108Z,11.72
2023-04-07T22:58:08.182Z,11.71
2023-04-07T23:00:36.509Z,11.70
2023-04-07T23:03:08.011Z,11.71
2023-04-07T23:05:37.147Z,11.70
2023-04-07T23:08:05.286Z,11.67
2023-04-07T23:10:33.366Z,11.67
2023-04-07T23:13:02.116Z,11.67
2023-04-07T23:15:30.410Z,11.67
2023-04-07T23:18:03.781Z,11.68
2023-04-07T23:20:32.435Z,11.67
2023-04-07T23:23:04.683Z,11.68
2023-04-07T23:25:34.948Z,11.68
2023-04-07T23:28:03.114Z,11.68
2023-04-07T23:30:31.537Z,11.69
2023-04-07T23:33:00.837Z,11.69
2023-04-07T23:35:29.568Z,11.69
2023-04-07T23:37:59.071Z,11.69
2023-04-07T23:40:27.524Z,11.69
2023-04-07T23:42:56.948Z,11.68
2023-04-07T23:45:25.232Z,11.67
2023-04-07T23:47:54.030Z,11.66
2023-04-07T23:50:23.122Z,11.64
2023-04-07T23:52:51.175Z,11.61
2023-04-07T23:55:19.816Z,11.60
2023-04-07T23:57:48.195Z,11.57
